Wetterdaten: Woche 29.10.12 - 04.11.12 (KW44)
Datum Zeit Temperatur Luftfeuchte Luftdruck Niederschlag Windrichtung Sonnenschein Solar Wind
29.10.2012 00:00 -0,7 C 97 % 1015,7 hPa 0,0 l/m N-NO 0,00 h 0 W/m 8,3 km/h (2 Bft)
29.10.2012 01:00 -0,8 C 97 % 1015,8 hPa 0,0 l/m N-NO 0,00 h 0 W/m 5,2 km/h (1 Bft)
29.10.2012 02:00 -0,9 C 97 % 1016,3 hPa 0,0 l/m N-NO 0,00 h 0 W/m 7,0 km/h (2 Bft)
29.10.2012 03:00 -0,9 C 97 % 1016,1 hPa 0,0 l/m N-NO 0,00 h 0 W/m 4,8 km/h (1 Bft)
29.10.2012 04:00 -1,0 C 97 % 1016,0 hPa 0,0 l/m N-NO 0,00 h 0 W/m 2,8 km/h (1 Bft)
29.10.2012 05:00 -1,1 C 97 % 1016,3 hPa 0,0 l/m N-NO 0,00 h 0 W/m 3,5 km/h (1 Bft)
29.10.2012 06:00 -1,2 C 97 % 1016,5 hPa 0,0 l/m N-NO 0,00 h 0 W/m 2,0 km/h (1 Bft)
29.10.2012 07:00 -1,3 C 97 % 1017,0 hPa 0,0 l/m N-NO 0,00 h 12 W/m 1,3 km/h (1 Bft)
29.10.2012 08:00 -1,1 C 97 % 1017,3 hPa 0,0 l/m N-NO 0,00 h 45 W/m 1,9 km/h (1 Bft)
29.10.2012 09:00 -0,8 C 97 % 1017,4 hPa 0,0 l/m N-NO 0,00 h 71 W/m 3,2 km/h (1 Bft)
29.10.2012 10:00 -0,4 C 97 % 1017,5 hPa 0,0 l/m SW 0,00 h 104 W/m 6,0 km/h (2 Bft)
29.10.2012 11:00 0,0 C 96 % 1017,3 hPa 0,0 l/m SW 0,00 h 143 W/m 3,9 km/h (1 Bft)
29.10.2012 12:00 0,7 C 96 % 1016,6 hPa 0,0 l/m SW 0,00 h 164 W/m 6,3 km/h (2 Bft)
29.10.2012 13:00 1,2 C 95 % 1016,2 hPa 0,0 l/m SW 0,08 h 150 W/m 9,1 km/h (2 Bft)
29.10.2012 14:00 1,3 C 95 % 1015,9 hPa 0,0 l/m W-SW 0,33 h 187 W/m 9,8 km/h (2 Bft)
29.10.2012 15:00 1,3 C 93 % 1015,7 hPa 0,0 l/m W 0,00 h 93 W/m 5,7 km/h (1 Bft)
29.10.2012 16:00 1,1 C 94 % 1015,1 hPa 0,0 l/m W 0,58 h 49 W/m 5,2 km/h (1 Bft)
29.10.2012 17:00 0,2 C 93 % 1015,1 hPa 0,0 l/m N 0,00 h 5 W/m 2,1 km/h (1 Bft)
29.10.2012 18:00 -0,9 C 93 % 1015,1 hPa 0,0 l/m W 0,00 h 0 W/m 3,9 km/h (1 Bft)
29.10.2012 19:00 -1,2 C 94 % 1015,0 hPa 0,0 l/m W 0,00 h 0 W/m 3,9 km/h (1 Bft)
29.10.2012 20:00 -0,9 C 95 % 1014,9 hPa 0,0 l/m N 0,00 h 0 W/m 1,5 km/h (1 Bft)
29.10.2012 21:00 -1,0 C 95 % 1014,8 hPa 0,0 l/m W 0,00 h 0 W/m 2,8 km/h (1 Bft)
29.10.2012 22:00 -1,3 C 95 % 1014,2 hPa 0,0 l/m N 0,00 h 0 W/m 3,1 km/h (1 Bft)
29.10.2012 23:00 -1,6 C 95 % 1013,6 hPa 0,0 l/m W 0,00 h 0 W/m 2,4 km/h (1 Bft)
30.10.2012 00:00 -1,7 C 96 % 1012,9 hPa 0,0 l/m W-SW 0,00 h 0 W/m 5,1 km/h (1 Bft)
30.10.2012 01:00 -1,8 C 96 % 1012,2 hPa 0,0 l/m W-SW 0,00 h 0 W/m 2,5 km/h (1 Bft)
30.10.2012 02:00 -1,7 C 96 % 1011,8 hPa 0,0 l/m N 0,00 h 0 W/m 1,3 km/h (1 Bft)
30.10.2012 03:00 -1,5 C 97 % 1011,1 hPa 0,0 l/m W-SW 0,00 h 0 W/m 4,3 km/h (1 Bft)
30.10.2012 04:00 -1,1 C 97 % 1010,8 hPa 0,0 l/m W-SW 0,00 h 0 W/m 4,3 km/h (1 Bft)
30.10.2012 05:00 -1,1 C 97 % 1010,9 hPa 0,0 l/m W-SW 0,00 h 0 W/m 6,6 km/h (2 Bft)
30.10.2012 06:00 -1,2 C 97 % 1010,7 hPa 0,0 l/m SW 0,00 h 0 W/m 5,6 km/h (1 Bft)
30.10.2012 07:00 -0,9 C 97 % 1011,0 hPa 0,2 l/m SW 0,00 h 11 W/m 9,0 km/h (2 Bft)
30.10.2012 08:00 -0,4 C 97 % 1010,9 hPa 0,2 l/m S-SW 0,00 h 34 W/m 12,9 km/h (3 Bft)
30.10.2012 09:00 0,3 C 98 % 1010,7 hPa 0,0 l/m S-SW 0,08 h 129 W/m 13,3 km/h (3 Bft)
30.10.2012 10:00 1,0 C 97 % 1010,5 hPa 0,0 l/m SW 0,33 h 220 W/m 10,9 km/h (2 Bft)
30.10.2012 11:00 1,8 C 94 % 1010,1 hPa 0,0 l/m SW 0,67 h 391 W/m 6,5 km/h (2 Bft)
30.10.2012 12:00 3,0 C 88 % 1009,1 hPa 0,0 l/m SW 1,00 h 477 W/m 12,6 km/h (3 Bft)
30.10.2012 13:00 3,9 C 86 % 1008,5 hPa 0,0 l/m SW 1,00 h 437 W/m 12,6 km/h (3 Bft)
30.10.2012 14:00 4,8 C 84 % 1008,0 hPa 0,0 l/m SW 0,67 h 266 W/m 10,8 km/h (2 Bft)
30.10.2012 15:00 4,1 C 86 % 1007,8 hPa 0,0 l/m SW 0,83 h 179 W/m 9,4 km/h (2 Bft)
30.10.2012 16:00 3,9 C 84 % 1007,7 hPa 0,0 l/m S-SW 0,75 h 53 W/m 7,0 km/h (2 Bft)
30.10.2012 17:00 2,7 C 85 % 1007,7 hPa 0,0 l/m N 0,00 h 6 W/m 0,5 km/h (0 Bft)
30.10.2012 18:00 1,2 C 87 % 1008,0 hPa 0,0 l/m N 0,00 h 0 W/m 0,0 km/h (0 Bft)
30.10.2012 19:00 0,0 C 89 % 1007,9 hPa 0,0 l/m N 0,00 h 0 W/m 0,0 km/h (0 Bft)
30.10.2012 20:00 -0,7 C 91 % 1007,9 hPa 0,0 l/m N 0,00 h 0 W/m 0,0 km/h (0 Bft)
30.10.2012 21:00 -1,2 C 92 % 1007,9 hPa 0,0 l/m N 0,00 h 0 W/m 0,0 km/h (0 Bft)
30.10.2012 22:00 -1,6 C 93 % 1007,6 hPa 0,0 l/m N 0,00 h 0 W/m 0,0 km/h (0 Bft)
30.10.2012 23:00 -1,9 C 94 % 1007,3 hPa 0,0 l/m N 0,00 h 0 W/m 0,0 km/h (0 Bft)
31.10.2012 00:00 -2,1 C 94 % 1006,9 hPa 0,0 l/m N 0,00 h 0 W/m 0,1 km/h (0 Bft)
31.10.2012 01:00 -2,3 C 95 % 1006,7 hPa 0,0 l/m N 0,00 h 0 W/m 0,0 km/h (0 Bft)
31.10.2012 02:00 -2,6 C 95 % 1006,4 hPa 0,0 l/m N 0,00 h 0 W/m 0,0 km/h (0 Bft)
31.10.2012 03:00 -3,0 C 95 % 1006,1 hPa 0,0 l/m N 0,00 h 0 W/m 0,1 km/h (0 Bft)
31.10.2012 04:00 -3,2 C 95 % 1005,8 hPa 0,0 l/m N 0,00 h 0 W/m 0,1 km/h (0 Bft)
31.10.2012 05:00 -3,0 C 95 % 1005,5 hPa 0,0 l/m N 0,00 h 0 W/m 0,1 km/h (0 Bft)
31.10.2012 06:00 -3,0 C 96 % 1005,2 hPa 0,0 l/m N 0,00 h 0 W/m 0,5 km/h (0 Bft)
31.10.2012 07:00 -2,9 C 96 % 1005,0 hPa 0,0 l/m S-SW 0,00 h 19 W/m 2,7 km/h (1 Bft)
31.10.2012 08:00 -2,8 C 96 % 1005,0 hPa 0,0 l/m W-NW 0,50 h 95 W/m 4,4 km/h (1 Bft)
31.10.2012 09:00 -1,7 C 97 % 1004,8 hPa 0,0 l/m W-NW 0,92 h 254 W/m 4,4 km/h (1 Bft)
31.10.2012 10:00 -0,0 C 98 % 1004,5 hPa 0,0 l/m W-NW 1,00 h 388 W/m 5,2 km/h (1 Bft)
31.10.2012 11:00 2,6 C 94 % 1003,9 hPa 0,0 l/m N 1,00 h 465 W/m 7,6 km/h (2 Bft)
31.10.2012 12:00 5,4 C 88 % 1002,9 hPa 0,0 l/m N 1,00 h 478 W/m 6,0 km/h (2 Bft)
31.10.2012 13:00 8,1 C 74 % 1001,8 hPa 0,0 l/m O-SO 1,00 h 394 W/m 9,7 km/h (2 Bft)
31.10.2012 14:00 8,2 C 76 % 1000,8 hPa 0,0 l/m NO 0,83 h 234 W/m 10,2 km/h (2 Bft)
31.10.2012 15:00 6,7 C 85 % 1000,2 hPa 0,0 l/m NO 0,33 h 118 W/m 7,2 km/h (2 Bft)
31.10.2012 16:00 5,7 C 88 % 999,4 hPa 0,0 l/m NO 0,00 h 30 W/m 4,5 km/h (1 Bft)
31.10.2012 17:00 4,7 C 89 % 998,7 hPa 0,0 l/m NO 0,00 h 0 W/m 5,2 km/h (1 Bft)
31.10.2012 18:00 3,5 C 91 % 998,2 hPa 0,0 l/m NO 0,00 h 0 W/m 3,3 km/h (1 Bft)
31.10.2012 19:00 3,0 C 94 % 997,6 hPa 0,0 l/m N-NO 0,00 h 0 W/m 6,5 km/h (2 Bft)
31.10.2012 20:00 3,2 C 95 % 996,7 hPa 0,0 l/m N-NO 0,00 h 0 W/m 5,2 km/h (1 Bft)
31.10.2012 21:00 3,2 C 96 % 995,9 hPa 0,0 l/m N 0,00 h 0 W/m 3,1 km/h (1 Bft)
31.10.2012 22:00 3,2 C 96 % 995,4 hPa 0,0 l/m N-NO 0,00 h 0 W/m 4,7 km/h (1 Bft)
31.10.2012 23:00 3,3 C 96 % 994,5 hPa 0,0 l/m N-NO 0,00 h 0 W/m 4,1 km/h (1 Bft)
01.11.2012 00:00 3,3 C 96 % 994,3 hPa 0,0 l/m N 0,00 h 0 W/m 1,1 km/h (0 Bft)
01.11.2012 01:00 3,1 C 96 % 993,3 hPa 0,0 l/m N 0,00 h 0 W/m 1,5 km/h (1 Bft)
01.11.2012 02:00 2,9 C 96 % 992,8 hPa 0,0 l/m N 0,00 h 0 W/m 0,4 km/h (0 Bft)
01.11.2012 03:00 2,7 C 96 % 992,5 hPa 0,0 l/m N-NO 0,00 h 0 W/m 1,7 km/h (1 Bft)
01.11.2012 04:00 2,7 C 97 % 992,5 hPa 0,2 l/m N 0,00 h 0 W/m 0,7 km/h (0 Bft)
01.11.2012 05:00 2,7 C 97 % 992,2 hPa 0,2 l/m N-NO 0,00 h 0 W/m 2,5 km/h (1 Bft)
01.11.2012 06:00 2,9 C 97 % 992,0 hPa 0,2 l/m N-NO 0,00 h 0 W/m 4,1 km/h (1 Bft)
01.11.2012 07:00 3,2 C 97 % 992,2 hPa 0,0 l/m SW 0,00 h 10 W/m 8,2 km/h (2 Bft)
01.11.2012 08:00 3,7 C 98 % 992,5 hPa 0,0 l/m SW 0,00 h 37 W/m 5,1 km/h (1 Bft)
01.11.2012 09:00 4,6 C 98 % 992,2 hPa 0,0 l/m S-SW 0,00 h 105 W/m 8,7 km/h (2 Bft)
01.11.2012 10:00 5,3 C 98 % 992,1 hPa 0,0 l/m S-SW 0,42 h 215 W/m 16,4 km/h (3 Bft)
01.11.2012 11:00 6,6 C 95 % 992,0 hPa 0,0 l/m SW 0,58 h 303 W/m 16,1 km/h (3 Bft)
01.11.2012 12:00 8,2 C 89 % 991,4 hPa 0,0 l/m S-SW 1,00 h 420 W/m 18,9 km/h (3 Bft)
01.11.2012 13:00 10,0 C 75 % 990,9 hPa 0,0 l/m W-SW 1,00 h 430 W/m 21,4 km/h (4 Bft)
01.11.2012 14:00 10,6 C 71 % 991,0 hPa 0,0 l/m W-SW 1,00 h 321 W/m 20,8 km/h (4 Bft)
01.11.2012 15:00 9,9 C 74 % 991,9 hPa 0,0 l/m SW 0,75 h 135 W/m 17,7 km/h (3 Bft)
01.11.2012 16:00 9,4 C 74 % 992,3 hPa 0,0 l/m W-SW 0,08 h 29 W/m 18,1 km/h (3 Bft)
01.11.2012 17:00 8,8 C 76 % 992,9 hPa 0,0 l/m SW 0,00 h 5 W/m 15,8 km/h (3 Bft)
01.11.2012 18:00 8,7 C 78 % 993,1 hPa 0,0 l/m SW 0,00 h 0 W/m 11,0 km/h (2 Bft)
01.11.2012 19:00 8,3 C 82 % 993,6 hPa 0,0 l/m W-SW 0,00 h 0 W/m 5,2 km/h (1 Bft)
01.11.2012 20:00 7,6 C 84 % 994,0 hPa 0,0 l/m W-SW 0,00 h 0 W/m 3,5 km/h (1 Bft)
01.11.2012 21:00 7,0 C 85 % 994,4 hPa 0,0 l/m W-SW 0,00 h 0 W/m 1,6 km/h (1 Bft)
01.11.2012 22:00 6,6 C 88 % 994,9 hPa 0,0 l/m W-SW 0,00 h 0 W/m 9,9 km/h (2 Bft)
01.11.2012 23:00 7,3 C 85 % 996,9 hPa 0,2 l/m W 0,00 h 0 W/m 27,8 km/h (4 Bft)
02.11.2012 00:00 5,6 C 89 % 998,2 hPa 0,8 l/m W-SW 0,00 h 0 W/m 26,3 km/h (4 Bft)
02.11.2012 01:00 4,9 C 92 % 998,9 hPa 0,0 l/m SW 0,00 h 0 W/m 17,0 km/h (3 Bft)
02.11.2012 02:00 4,7 C 93 % 999,8 hPa 0,0 l/m SW 0,00 h 0 W/m 17,2 km/h (3 Bft)
02.11.2012 03:00 4,9 C 90 % 1000,6 hPa 0,0 l/m W-SW 0,00 h 0 W/m 22,8 km/h (4 Bft)
02.11.2012 04:00 5,3 C 85 % 1001,3 hPa 0,0 l/m W-SW 0,00 h 0 W/m 18,1 km/h (3 Bft)
02.11.2012 05:00 5,4 C 83 % 1002,1 hPa 0,0 l/m W-SW 0,00 h 0 W/m 14,8 km/h (3 Bft)
02.11.2012 06:00 4,9 C 89 % 1002,6 hPa 0,0 l/m SW 0,00 h 0 W/m 11,7 km/h (2 Bft)
02.11.2012 07:00 4,8 C 91 % 1003,1 hPa 0,0 l/m SW 0,00 h 11 W/m 12,5 km/h (3 Bft)
02.11.2012 08:00 4,8 C 91 % 1004,3 hPa 0,0 l/m SW 0,00 h 31 W/m 12,3 km/h (3 Bft)
02.11.2012 09:00 5,2 C 93 % 1005,1 hPa 0,2 l/m SW 0,08 h 84 W/m 20,5 km/h (4 Bft)
02.11.2012 10:00 5,6 C 95 % 1005,6 hPa 0,0 l/m S-SW 0,00 h 121 W/m 19,2 km/h (3 Bft)
02.11.2012 11:00 6,3 C 93 % 1005,6 hPa 0,0 l/m S-SW 0,00 h 159 W/m 15,0 km/h (3 Bft)
02.11.2012 12:00 7,3 C 89 % 1004,7 hPa 0,0 l/m S-SW 0,50 h 310 W/m 14,5 km/h (3 Bft)
02.11.2012 13:00 8,8 C 80 % 1003,9 hPa 0,0 l/m SW 0,33 h 245 W/m 13,4 km/h (3 Bft)
02.11.2012 14:00 9,8 C 76 % 1003,3 hPa 0,0 l/m SW 0,42 h 196 W/m 15,4 km/h (3 Bft)
02.11.2012 15:00 9,2 C 77 % 1002,8 hPa 0,0 l/m S-SW 0,00 h 43 W/m 9,0 km/h (2 Bft)
02.11.2012 16:00 8,8 C 78 % 1002,0 hPa 0,0 l/m S-SW 0,00 h 20 W/m 4,9 km/h (1 Bft)
02.11.2012 17:00 8,2 C 81 % 1001,9 hPa 0,0 l/m S-SW 0,00 h 0 W/m 5,2 km/h (1 Bft)
02.11.2012 18:00 9,0 C 73 % 1002,4 hPa 0,0 l/m W-SW 0,00 h 0 W/m 26,3 km/h (4 Bft)
02.11.2012 19:00 10,0 C 73 % 1002,7 hPa 0,0 l/m SW 0,00 h 0 W/m 28,4 km/h (4 Bft)
02.11.2012 20:00 9,2 C 81 % 1003,4 hPa 0,0 l/m W-SW 0,00 h 0 W/m 20,8 km/h (4 Bft)
02.11.2012 21:00 8,5 C 88 % 1003,9 hPa 0,2 l/m SW 0,00 h 0 W/m 23,6 km/h (4 Bft)
02.11.2012 22:00 8,6 C 90 % 1004,4 hPa 0,6 l/m SW 0,00 h 0 W/m 29,9 km/h (5 Bft)
02.11.2012 23:00 8,3 C 92 % 1004,7 hPa 0,2 l/m W-SW 0,00 h 0 W/m 22,4 km/h (4 Bft)
03.11.2012 00:00 8,5 C 92 % 1005,0 hPa 0,4 l/m W-SW 0,00 h 0 W/m 19,7 km/h (3 Bft)
03.11.2012 01:00 8,3 C 93 % 1005,3 hPa 0,4 l/m SW 0,00 h 0 W/m 11,2 km/h (2 Bft)
03.11.2012 02:00 7,9 C 95 % 1005,3 hPa 0,0 l/m SW 0,00 h 0 W/m 5,2 km/h (1 Bft)
03.11.2012 03:00 7,6 C 95 % 1005,1 hPa 0,0 l/m N 0,00 h 0 W/m 0,7 km/h (0 Bft)
03.11.2012 04:00 7,4 C 96 % 1004,9 hPa 0,0 l/m SW 0,00 h 0 W/m 4,3 km/h (1 Bft)
03.11.2012 05:00 7,3 C 96 % 1004,9 hPa 0,0 l/m SW 0,00 h 0 W/m 7,0 km/h (2 Bft)
03.11.2012 06:00 7,2 C 96 % 1004,8 hPa 0,0 l/m SW 0,00 h 0 W/m 9,4 km/h (2 Bft)
03.11.2012 07:00 8,1 C 94 % 1004,7 hPa 0,0 l/m SW 0,00 h 16 W/m 17,0 km/h (3 Bft)
03.11.2012 08:00 10,0 C 82 % 1004,7 hPa 0,0 l/m SW 0,08 h 81 W/m 16,0 km/h (3 Bft)
03.11.2012 09:00 11,3 C 76 % 1004,5 hPa 0,0 l/m W-SW 1,00 h 268 W/m 16,2 km/h (3 Bft)
03.11.2012 10:00 14,2 C 60 % 1004,4 hPa 0,0 l/m W-SW 1,00 h 379 W/m 25,9 km/h (4 Bft)
03.11.2012 11:00 15,0 C 54 % 1004,2 hPa 0,0 l/m W-SW 0,83 h 379 W/m 25,3 km/h (4 Bft)
03.11.2012 12:00 15,4 C 54 % 1003,7 hPa 0,0 l/m W-SW 0,83 h 349 W/m 30,3 km/h (5 Bft)
03.11.2012 13:00 15,7 C 54 % 1002,8 hPa 0,0 l/m W-SW 1,00 h 380 W/m 28,7 km/h (4 Bft)
03.11.2012 14:00 16,0 C 52 % 1002,3 hPa 0,0 l/m W-SW 0,75 h 272 W/m 26,0 km/h (4 Bft)
03.11.2012 15:00 15,8 C 51 % 1002,5 hPa 0,0 l/m W-SW 0,67 h 146 W/m 24,9 km/h (4 Bft)
03.11.2012 16:00 15,1 C 49 % 1002,8 hPa 0,0 l/m W-SW 0,25 h 36 W/m 34,7 km/h (5 Bft)
03.11.2012 17:00 14,7 C 51 % 1002,9 hPa 0,0 l/m SW 0,00 h 0 W/m 31,9 km/h (5 Bft)
03.11.2012 18:00 14,0 C 55 % 1003,3 hPa 0,0 l/m W-SW 0,00 h 0 W/m 24,3 km/h (4 Bft)
03.11.2012 19:00 13,1 C 59 % 1003,5 hPa 0,0 l/m W-SW 0,00 h 0 W/m 14,8 km/h (3 Bft)
03.11.2012 20:00 12,4 C 63 % 1003,4 hPa 0,0 l/m SW 0,00 h 0 W/m 9,6 km/h (2 Bft)
03.11.2012 21:00 10,4 C 72 % 1003,5 hPa 0,0 l/m SW 0,00 h 0 W/m 7,6 km/h (2 Bft)
03.11.2012 22:00 9,8 C 77 % 1003,3 hPa 0,0 l/m SW 0,00 h 0 W/m 8,7 km/h (2 Bft)
03.11.2012 23:00 9,8 C 79 % 1003,4 hPa 0,0 l/m SW 0,00 h 0 W/m 9,4 km/h (2 Bft)
04.11.2012 00:00 10,1 C 78 % 1003,7 hPa 0,0 l/m SW 0,00 h 0 W/m 8,2 km/h (2 Bft)
04.11.2012 01:00 10,2 C 78 % 1003,7 hPa 0,0 l/m SW 0,00 h 0 W/m 2,5 km/h (1 Bft)
04.11.2012 02:00 9,9 C 84 % 1003,9 hPa 0,0 l/m W-NW 0,00 h 0 W/m 9,4 km/h (2 Bft)
04.11.2012 03:00 10,7 C 87 % 1003,4 hPa 0,4 l/m W-NW 0,00 h 0 W/m 19,4 km/h (3 Bft)
04.11.2012 04:00 10,6 C 89 % 1003,5 hPa 0,0 l/m SW 0,00 h 0 W/m 9,4 km/h (2 Bft)
04.11.2012 05:00 9,8 C 90 % 1003,6 hPa 0,0 l/m W-SW 0,00 h 0 W/m 3,3 km/h (1 Bft)
04.11.2012 06:00 8,8 C 92 % 1003,3 hPa 0,0 l/m O-NO 0,00 h 0 W/m 7,4 km/h (2 Bft)
04.11.2012 07:00 8,1 C 94 % 1003,3 hPa 0,2 l/m N 0,00 h 11 W/m 2,4 km/h (1 Bft)
04.11.2012 08:00 7,9 C 95 % 1003,2 hPa 0,0 l/m O-NO 0,00 h 42 W/m 3,7 km/h (1 Bft)
04.11.2012 09:00 8,2 C 95 % 1002,6 hPa 0,0 l/m O-NO 0,00 h 84 W/m 3,5 km/h (1 Bft)
04.11.2012 10:00 8,8 C 96 % 1002,7 hPa 0,0 l/m N-NO 0,00 h 94 W/m 4,9 km/h (1 Bft)
04.11.2012 11:00 10,1 C 93 % 1001,7 hPa 0,0 l/m O 0,83 h 372 W/m 5,1 km/h (1 Bft)
04.11.2012 12:00 12,8 C 84 % 1000,5 hPa 0,0 l/m O 1,00 h 426 W/m 7,8 km/h (2 Bft)
04.11.2012 13:00 14,8 C 75 % 999,8 hPa 0,0 l/m SW 0,92 h 381 W/m 8,6 km/h (2 Bft)
04.11.2012 14:00 15,1 C 73 % 999,6 hPa 0,0 l/m W-SW 0,58 h 263 W/m 9,5 km/h (2 Bft)
04.11.2012 15:00 14,8 C 75 % 998,8 hPa 0,0 l/m W-SW 0,25 h 82 W/m 2,7 km/h (1 Bft)
04.11.2012 16:00 14,4 C 73 % 998,4 hPa 0,0 l/m W 0,00 h 22 W/m 5,2 km/h (1 Bft)
04.11.2012 17:00 13,6 C 75 % 998,5 hPa 0,0 l/m W 0,00 h 0 W/m 18,4 km/h (3 Bft)
04.11.2012 18:00 12,6 C 83 % 999,3 hPa 1,4 l/m N-NW 0,00 h 0 W/m 14,9 km/h (3 Bft)
04.11.2012 19:00 10,4 C 88 % 999,7 hPa 1,6 l/m N-NW 0,00 h 0 W/m 8,9 km/h (2 Bft)
04.11.2012 20:00 9,2 C 91 % 1000,0 hPa 2,4 l/m W 0,00 h 0 W/m 4,9 km/h (1 Bft)
04.11.2012 21:00 8,2 C 93 % 1000,9 hPa 4,2 l/m W-NW 0,00 h 0 W/m 9,6 km/h (2 Bft)
04.11.2012 22:00 7,7 C 94 % 1001,1 hPa 2,6 l/m W 0,00 h 0 W/m 6,1 km/h (2 Bft)
04.11.2012 23:00 7,3 C 95 % 1001,0 hPa 1,6 l/m W 0,00 h 0 W/m 4,4 km/h (1 Bft)
Min-Datum _ 31.10.12 03.11.12 01.11.12 - - - - 29.10.12
_ Min-Zeit 03:55 16:05 13:20 - - - - 04:30
Minimum _ -3,2 C 49 % 990,8 hPa - - - - 0,0 km/h (0 Bft)
Max-Datum _ 03.11.12 29.10.12 29.10.12 04.11.12 - 29.10.12 03.11.12 03.11.12
_ Max-Zeit 14:25 16:45 09:05 21:35 - 13:55 11:45 17:00
Maximum _ 16,2 C 100 % 1017,5 hPa 4,2 l/m - 0,08 h 531 W/m 46,7 km/h
W-SW (6 Bft)
Durchschnitt _ 5,2 C 88 % 1004,1 hPa #18,4 l/m SW #29:05 h 178 W/m 9,4 km/h (2 Bft)